Time;durP1;ratioP1;P1;durP2;ratioP2;P2;SDS_P1;SDS_P2;PMS_P1;PMS_P2;Temp;Humidity;BMP_temperature;BMP_pressure;BME280_temperature;BME280_humidity;BME280_pressure;Samples;Min_cycle;Max_cycle;Signal;HPM_P1;HPM_P2
2022/05/03 00:01:45;;;;;;;;;;;6.50;99.90;;;;;;5116427;28;19923;-59
2022/05/03 00:04:17;;;;;;;;;;;6.50;99.90;;;;;;5116200;28;19923;-59
2022/05/03 00:06:54;;;;;;;;;;;6.40;99.90;;;;;;5115931;28;19923;-60
2022/05/03 00:09:24;;;;;;;;;;;6.40;99.90;;;;;;5116656;28;20021;-59
2022/05/03 00:11:51;;;;;;;;;;;6.30;99.90;;;;;;5097857;28;19931;-59
2022/05/03 00:14:21;;;;;;;;;;;6.20;99.90;;;;;;5116052;28;19927;-59
2022/05/03 00:16:48;;;;;;;;;;;6.20;99.90;;;;;;5116339;28;19967;-60
2022/05/03 00:19:14;;;;;;;;;;;6.20;99.90;;;;;;5116598;28;20014;-60
2022/05/03 00:21:40;;;;;;;;;;;6.20;99.90;;;;;;5116025;28;19923;-59
2022/05/03 00:24:06;;;;;;;;;;;6.30;99.90;;;;;;5117004;28;19969;-60
2022/05/03 00:26:32;;;;;;;;;;;6.20;99.90;;;;;;5116122;28;19920;-59
2022/05/03 00:28:59;;;;;;;;;;;6.10;99.90;;;;;;5097690;28;20010;-60
2022/05/03 00:31:25;;;;;;;;;;;6.10;99.90;;;;;;5098002;28;19924;-60
2022/05/03 00:33:52;;;;;;;;;;;6.10;99.90;;;;;;5115771;28;20400;-59
2022/05/03 00:36:18;;;;;;;;;;;6.10;99.90;;;;;;5097426;28;19924;-59
2022/05/03 00:38:43;;;;;;;;;;;6.10;99.90;;;;;;5098390;28;19924;-60
2022/05/03 00:41:13;;;;;;;;;;;6.10;99.90;;;;;;5098046;28;19923;-60
2022/05/03 00:43:43;;;;;;;;;;;6.10;99.90;;;;;;5115438;28;19923;-60
2022/05/03 00:46:13;;;;;;;;;;;6.10;99.90;;;;;;5116495;28;19924;-59
2022/05/03 00:48:47;;;;;;;;;;;6.00;99.90;;;;;;5115537;28;19931;-60
2022/05/03 00:51:15;;;;;;;;;;;6.00;99.90;;;;;;5115244;28;20384;-59
2022/05/03 00:53:49;;;;;;;;;;;6.00;99.90;;;;;;5116055;28;20382;-60
2022/05/03 00:56:26;;;;;;;;;;;5.90;99.90;;;;;;5115048;28;20020;-59
2022/05/03 00:59:10;;;;;;;;;;;5.80;99.90;;;;;;5116247;28;19939;-59
2022/05/03 01:01:40;;;;;;;;;;;5.70;99.90;;;;;;5115871;28;20358;-60
2022/05/03 01:04:10;;;;;;;;;;;5.50;99.90;;;;;;5115047;28;19924;-60
2022/05/03 01:06:42;;;;;;;;;;;5.40;99.90;;;;;;5115494;28;20373;-60
2022/05/03 01:09:10;;;;;;;;;;;5.30;99.90;;;;;;5114141;28;19940;-60
2022/05/03 01:11:53;;;;;;;;;;;5.10;99.90;;;;;;5114719;28;20018;-59
2022/05/03 01:14:36;;;;;;;;;;;5.00;99.90;;;;;;5115528;28;19977;-59
2022/05/03 01:17:04;;;;;;;;;;;5.00;99.90;;;;;;5114483;28;19963;-60
2022/05/03 01:19:48;;;;;;;;;;;5.00;99.90;;;;;;5115437;28;19924;-59
2022/05/03 01:22:33;;;;;;;;;;;5.00;99.90;;;;;;5097267;28;19931;-59
2022/05/03 01:25:16;;;;;;;;;;;4.90;99.90;;;;;;5114697;28;19930;-59
2022/05/03 01:27:57;;;;;;;;;;;4.90;99.90;;;;;;5115005;28;20354;-59
2022/05/03 01:30:24;;;;;;;;;;;4.90;99.90;;;;;;5115329;28;19928;-59
2022/05/03 01:32:51;;;;;;;;;;;4.90;99.90;;;;;;5114304;28;19923;-60
2022/05/03 01:35:20;;;;;;;;;;;4.90;99.90;;;;;;5097059;28;19928;-59
2022/05/03 01:37:46;;;;;;;;;;;4.90;99.90;;;;;;5115248;28;19977;-60
2022/05/03 01:40:18;;;;;;;;;;;4.90;99.90;;;;;;5114011;28;19932;-59
2022/05/03 01:42:51;;;;;;;;;;;4.80;99.90;;;;;;5115198;28;20015;-59
2022/05/03 01:45:23;;;;;;;;;;;4.70;99.90;;;;;;5114513;28;19924;-59
2022/05/03 01:48:07;;;;;;;;;;;4.60;99.90;;;;;;5096760;28;20339;-59
2022/05/03 01:50:33;;;;;;;;;;;4.60;99.90;;;;;;5114554;28;19966;-59
2022/05/03 01:52:58;;;;;;;;;;;4.60;99.90;;;;;;5095972;28;20408;-59
2022/05/03 01:55:24;;;;;;;;;;;4.60;99.90;;;;;;5114451;28;19926;-59
2022/05/03 01:58:14;;;;;;;;;;;4.60;99.90;;;;;;5114868;28;20365;-59
2022/05/03 02:00:43;;;;;;;;;;;4.50;99.90;;;;;;5113505;28;19923;-59
2022/05/03 02:03:22;;;;;;;;;;;4.50;99.90;;;;;;5114352;28;19974;-59
2022/05/03 02:06:02;;;;;;;;;;;4.50;99.90;;;;;;5114831;28;20396;-59
2022/05/03 02:08:31;;;;;;;;;;;4.60;99.90;;;;;;5113933;28;19977;-59
2022/05/03 02:11:03;;;;;;;;;;;4.70;99.90;;;;;;5112397;28;20374;-59
2022/05/03 02:16:28;;;;;;;;;;;4.90;99.90;;;;;;5114092;28;20378;-59
2022/05/03 02:18:59;;;;;;;;;;;4.90;99.90;;;;;;5114502;28;20369;-59
2022/05/03 02:21:29;;;;;;;;;;;5.00;99.90;;;;;;5113177;28;19930;-59
2022/05/03 02:23:59;;;;;;;;;;;5.00;99.90;;;;;;5112690;28;20006;-59
2022/05/03 02:26:30;;;;;;;;;;;5.10;99.90;;;;;;5114355;28;19924;-59
2022/05/03 02:29:03;;;;;;;;;;;5.10;99.90;;;;;;5111826;28;19923;-59
2022/05/03 02:31:38;;;;;;;;;;;5.10;99.90;;;;;;5112445;28;19924;-59
2022/05/03 02:34:13;;;;;;;;;;;5.20;99.90;;;;;;5114129;28;19924;-59
2022/05/03 02:36:44;;;;;;;;;;;5.30;99.90;;;;;;5095074;28;20389;-59
2022/05/03 02:39:11;;;;;;;;;;;5.30;99.90;;;;;;5113741;28;19923;-59
2022/05/03 02:41:38;;;;;;;;;;;5.40;99.90;;;;;;5113402;28;20018;-59
2022/05/03 02:44:04;;;;;;;;;;;5.50;99.90;;;;;;5095739;28;19924;-59
2022/05/03 02:46:37;;;;;;;;;;;5.50;99.90;;;;;;5113296;28;19923;-59
2022/05/03 02:49:03;;;;;;;;;;;5.60;99.90;;;;;;5113711;28;19931;-59
2022/05/03 02:51:39;;;;;;;;;;;5.60;99.90;;;;;;5113929;28;19924;-59
2022/05/03 02:54:15;;;;;;;;;;;5.60;99.90;;;;;;5113793;28;19923;-59
2022/05/03 02:56:48;;;;;;;;;;;5.70;99.90;;;;;;5094622;28;19928;-59
2022/05/03 02:59:19;;;;;;;;;;;5.70;99.90;;;;;;5095441;28;19924;-59
2022/05/03 03:01:56;;;;;;;;;;;5.80;99.90;;;;;;5113631;28;20484;-59
2022/05/03 03:04:22;;;;;;;;;;;5.80;99.90;;;;;;5112749;28;19931;-59
2022/05/03 03:06:51;;;;;;;;;;;6.20;99.90;;;;;;5113782;28;19920;-59
2022/05/03 03:09:21;;;;;;;;;;;6.10;99.90;;;;;;5094998;28;19934;-59
2022/05/03 03:11:53;;;;;;;;;;;6.00;99.90;;;;;;5112430;28;19930;-59
2022/05/03 03:14:21;;;;;;;;;;;6.10;99.90;;;;;;5094936;28;19924;-59
2022/05/03 03:16:52;;;;;;;;;;;6.10;99.90;;;;;;5112627;28;20297;-59
2022/05/03 03:19:27;;;;;;;;;;;6.10;99.90;;;;;;5113426;28;19924;-59
2022/05/03 03:21:55;;;;;;;;;;;6.10;99.90;;;;;;5096159;28;20339;-59
2022/05/03 03:24:21;;;;;;;;;;;6.10;99.90;;;;;;5112684;28;19930;-59
2022/05/03 03:26:47;;;;;;;;;;;6.00;99.90;;;;;;5095628;28;20007;-59
2022/05/03 03:29:13;;;;;;;;;;;5.90;99.90;;;;;;5113487;28;19928;-59
2022/05/03 03:31:42;;;;;;;;;;;5.90;99.90;;;;;;5093665;28;19927;-59
2022/05/03 03:34:08;;;;;;;;;;;6.00;99.90;;;;;;5113499;28;19924;-59
2022/05/03 03:36:34;;;;;;;;;;;5.90;99.90;;;;;;5113683;28;19924;-59
2022/05/03 03:38:59;;;;;;;;;;;5.90;99.90;;;;;;5094355;28;20378;-59
2022/05/03 03:41:25;;;;;;;;;;;5.80;99.90;;;;;;5095063;28;19924;-59
2022/05/03 03:43:52;;;;;;;;;;;5.80;99.90;;;;;;5095021;28;19928;-60
2022/05/03 03:46:17;;;;;;;;;;;5.80;99.90;;;;;;5112322;28;19974;-59
2022/05/03 03:48:43;;;;;;;;;;;5.80;99.90;;;;;;5094713;28;19967;-59
2022/05/03 03:51:10;;;;;;;;;;;5.80;99.90;;;;;;5094783;28;19931;-59
2022/05/03 03:53:37;;;;;;;;;;;5.80;99.90;;;;;;5112094;28;19932;-59
2022/05/03 03:56:03;;;;;;;;;;;5.80;99.90;;;;;;5112171;28;19924;-59
2022/05/03 03:58:29;;;;;;;;;;;5.90;99.90;;;;;;5094790;28;20255;-59
2022/05/03 04:00:55;;;;;;;;;;;6.30;99.90;;;;;;5112460;28;19920;-59
2022/05/03 04:03:21;;;;;;;;;;;6.00;99.90;;;;;;5113221;28;19928;-59
2022/05/03 04:05:47;;;;;;;;;;;6.10;99.90;;;;;;5112006;28;19924;-59
2022/05/03 04:08:12;;;;;;;;;;;6.10;99.90;;;;;;5112884;28;19928;-59
2022/05/03 04:10:38;;;;;;;;;;;6.10;99.90;;;;;;5094569;28;19931;-59
2022/05/03 04:13:04;;;;;;;;;;;6.10;99.90;;;;;;5112334;28;19924;-59
2022/05/03 04:15:30;;;;;;;;;;;6.10;99.90;;;;;;5112478;28;20021;-59
2022/05/03 04:17:56;;;;;;;;;;;6.50;99.90;;;;;;5113031;28;19930;-59
2022/05/03 04:20:22;;;;;;;;;;;6.20;99.90;;;;;;5090728;28;19924;-59
2022/05/03 04:22:48;;;;;;;;;;;6.20;99.90;;;;;;5093757;28;20328;-59
2022/05/03 04:25:14;;;;;;;;;;;6.20;99.90;;;;;;5092733;28;19924;-59
2022/05/03 04:27:40;;;;;;;;;;;6.30;99.90;;;;;;5097563;28;19984;-59
2022/05/03 04:30:06;;;;;;;;;;;6.30;99.90;;;;;;5116189;28;19928;-59
2022/05/03 04:32:32;;;;;;;;;;;6.40;99.90;;;;;;5116255;28;19988;-59
2022/05/03 04:34:58;;;;;;;;;;;6.50;99.90;;;;;;5115745;28;19953;-59
2022/05/03 04:37:24;;;;;;;;;;;6.60;99.90;;;;;;5097530;28;19928;-59
2022/05/03 04:39:50;;;;;;;;;;;6.70;99.90;;;;;;5116585;28;19924;-59
2022/05/03 04:42:16;;;;;;;;;;;6.80;99.90;;;;;;5115451;28;20282;-60
2022/05/03 04:44:42;;;;;;;;;;;6.90;99.90;;;;;;5115954;28;19928;-60
2022/05/03 04:47:07;;;;;;;;;;;6.90;99.90;;;;;;5116154;28;19924;-60
2022/05/03 04:49:33;;;;;;;;;;;7.10;99.90;;;;;;5115239;28;20306;-60
2022/05/03 04:51:59;;;;;;;;;;;7.00;99.90;;;;;;5097028;28;20366;-60
2022/05/03 04:54:24;;;;;;;;;;;7.60;99.90;;;;;;5116249;28;19927;-60
2022/05/03 04:56:52;;;;;;;;;;;7.10;99.90;;;;;;5115277;28;19939;-60
2022/05/03 04:59:18;;;;;;;;;;;7.20;99.90;;;;;;5097006;28;20011;-60
2022/05/03 05:01:43;;;;;;;;;;;7.30;99.90;;;;;;5115932;28;20031;-60
2022/05/03 05:04:09;;;;;;;;;;;7.30;99.90;;;;;;5115038;28;19920;-60
2022/05/03 05:06:35;;;;;;;;;;;7.30;99.90;;;;;;5115594;28;19947;-60
2022/05/03 05:09:00;;;;;;;;;;;7.30;99.90;;;;;;5115476;28;19947;-60
2022/05/03 05:11:26;;;;;;;;;;;7.40;99.90;;;;;;5097130;28;20006;-60
2022/05/03 05:13:52;;;;;;;;;;;7.50;99.90;;;;;;5115167;28;19930;-61
2022/05/03 05:16:17;;;;;;;;;;;7.50;99.90;;;;;;5114865;28;19927;-60
2022/05/03 05:18:43;;;;;;;;;;;7.60;99.90;;;;;;5115420;28;19924;-60
2022/05/03 05:21:10;;;;;;;;;;;7.70;99.90;;;;;;5115230;28;20031;-60
2022/05/03 05:23:36;;;;;;;;;;;7.60;99.90;;;;;;5114926;28;19920;-60
2022/05/03 05:26:02;;;;;;;;;;;7.80;99.90;;;;;;5115107;28;19928;-60
2022/05/03 05:28:28;;;;;;;;;;;8.00;99.90;;;;;;5115282;28;20036;-60
2022/05/03 05:30:54;;;;;;;;;;;7.90;99.90;;;;;;5114393;28;19924;-60
2022/05/03 05:33:20;;;;;;;;;;;8.10;99.90;;;;;;5097193;28;19924;-60
2022/05/03 05:35:47;;;;;;;;;;;8.20;99.90;;;;;;5114570;28;19930;-60
2022/05/03 05:38:14;;;;;;;;;;;8.20;99.90;;;;;;5095357;28;20374;-60
2022/05/03 05:40:40;;;;;;;;;;;8.10;99.90;;;;;;5114868;28;19983;-60
2022/05/03 05:43:06;;;;;;;;;;;8.20;99.90;;;;;;5111909;28;19923;-60
2022/05/03 05:45:32;;;;;;;;;;;8.50;99.90;;;;;;5113818;28;20072;-60
2022/05/03 05:47:57;;;;;;;;;;;8.60;99.90;;;;;;5114317;28;19923;-60
2022/05/03 05:50:23;;;;;;;;;;;8.30;99.90;;;;;;5096556;28;19924;-60
2022/05/03 05:55:35;;;;;;;;;;;8.40;99.90;;;;;;5114808;28;19942;-60
2022/05/03 05:58:00;;;;;;;;;;;8.50;99.90;;;;;;5096306;28;19930;-60
2022/05/03 06:00:26;;;;;;;;;;;8.50;99.90;;;;;;5113971;28;19924;-60
2022/05/03 06:02:52;;;;;;;;;;;8.60;99.90;;;;;;5095886;28;19977;-60
2022/05/03 06:05:17;;;;;;;;;;;8.50;99.90;;;;;;5095926;28;20063;-60
2022/05/03 06:07:43;;;;;;;;;;;8.50;99.90;;;;;;5114281;28;19931;-60
2022/05/03 06:10:09;;;;;;;;;;;8.80;99.90;;;;;;5096045;28;19946;-60
2022/05/03 06:12:34;;;;;;;;;;;8.50;99.90;;;;;;5113891;28;20430;-60
2022/05/03 06:15:00;;;;;;;;;;;8.50;99.90;;;;;;5095810;28;20261;-60
2022/05/03 06:17:25;;;;;;;;;;;8.50;99.90;;;;;;5096542;28;19923;-60
2022/05/03 06:19:51;;;;;;;;;;;8.50;99.90;;;;;;5113264;28;19932;-60
2022/05/03 06:22:17;;;;;;;;;;;8.60;99.90;;;;;;5114262;28;19923;-60
2022/05/03 06:24:45;;;;;;;;;;;8.90;99.90;;;;;;5114443;28;19985;-60
2022/05/03 06:27:11;;;;;;;;;;;8.70;99.90;;;;;;5113753;28;20030;-60
2022/05/03 06:29:37;;;;;;;;;;;8.70;99.90;;;;;;5113647;28;19967;-61
2022/05/03 06:32:04;;;;;;;;;;;8.70;99.90;;;;;;5114223;28;19967;-60
2022/05/03 06:34:29;;;;;;;;;;;8.70;99.90;;;;;;5113548;28;19923;-60
2022/05/03 06:36:55;;;;;;;;;;;8.80;99.90;;;;;;5113669;28;19968;-60
2022/05/03 06:39:20;;;;;;;;;;;8.80;99.90;;;;;;5113499;28;19927;-60
2022/05/03 06:41:46;;;;;;;;;;;8.80;99.90;;;;;;5113491;28;19924;-60
2022/05/03 06:44:13;;;;;;;;;;;8.90;99.90;;;;;;5113556;28;19920;-61
2022/05/03 06:46:39;;;;;;;;;;;8.90;99.90;;;;;;5113292;28;19959;-61
2022/05/03 06:49:05;;;;;;;;;;;8.90;99.90;;;;;;5094867;28;19963;-60
2022/05/03 06:51:31;;;;;;;;;;;9.00;99.90;;;;;;5095262;28;19927;-61
2022/05/03 06:53:57;;;;;;;;;;;9.00;99.90;;;;;;5095049;28;19923;-60
2022/05/03 06:56:22;;;;;;;;;;;8.90;99.90;;;;;;5112408;28;19982;-60
2022/05/03 06:58:49;;;;;;;;;;;8.90;99.90;;;;;;5112850;28;20500;-60
2022/05/03 07:01:15;;;;;;;;;;;8.90;99.90;;;;;;5113545;28;19976;-60
2022/05/03 07:03:41;;;;;;;;;;;8.90;99.90;;;;;;5112409;28;20324;-60
2022/05/03 07:06:07;;;;;;;;;;;8.90;99.90;;;;;;5094662;28;19923;-61
2022/05/03 07:08:33;;;;;;;;;;;8.90;99.90;;;;;;5113198;28;19924;-60
2022/05/03 07:10:59;;;;;;;;;;;9.00;99.90;;;;;;5112745;28;19980;-60
2022/05/03 07:13:25;;;;;;;;;;;9.00;99.90;;;;;;5112857;28;19962;-60
2022/05/03 07:15:51;;;;;;;;;;;9.00;99.90;;;;;;5094574;28;19927;-60
2022/05/03 07:23:46;;;;;;;;;;;9.20;99.90;;;;;;5112516;28;19924;-61
2022/05/03 07:26:12;;;;;;;;;;;9.30;99.90;;;;;;5112304;28;20482;-60
2022/05/03 07:28:38;;;;;;;;;;;9.40;99.90;;;;;;5106906;28;19975;-61
2022/05/03 07:31:04;;;;;;;;;;;9.50;99.90;;;;;;5096781;28;19976;-60
2022/05/03 07:33:30;;;;;;;;;;;9.50;99.90;;;;;;5083325;28;19985;-60
2022/05/03 07:35:55;;;;;;;;;;;9.60;99.90;;;;;;5110458;28;19973;-60
2022/05/03 07:38:21;;;;;;;;;;;9.60;99.90;;;;;;5099574;28;19924;-60
2022/05/03 07:40:47;;;;;;;;;;;9.70;99.90;;;;;;5077497;28;19959;-61
2022/05/03 07:43:13;;;;;;;;;;;9.80;99.90;;;;;;5078281;28;19924;-61
2022/05/03 07:45:39;;;;;;;;;;;9.80;99.90;;;;;;5111563;28;20362;-60
2022/05/03 07:48:05;;;;;;;;;;;9.90;99.90;;;;;;5074207;28;20366;-60
2022/05/03 07:50:31;;;;;;;;;;;10.00;99.90;;;;;;5112636;28;19971;-61
2022/05/03 07:52:57;;;;;;;;;;;10.20;99.90;;;;;;5097983;28;20447;-61
2022/05/03 07:55:22;;;;;;;;;;;10.30;99.90;;;;;;5104442;28;19930;-61
2022/05/03 07:57:48;;;;;;;;;;;10.40;99.90;;;;;;5092148;28;20297;-61
2022/05/03 08:00:14;;;;;;;;;;;10.50;99.90;;;;;;5116621;28;19924;-60
2022/05/03 08:02:40;;;;;;;;;;;10.50;99.90;;;;;;5111745;28;19924;-60
2022/05/03 08:05:07;;;;;;;;;;;10.60;99.90;;;;;;5114446;28;19930;-60
2022/05/03 08:07:34;;;;;;;;;;;10.60;99.90;;;;;;5116840;28;20388;-60
2022/05/03 08:10:00;;;;;;;;;;;10.50;99.90;;;;;;5098208;28;19949;-60
2022/05/03 08:12:26;;;;;;;;;;;10.50;99.90;;;;;;5115890;28;20398;-61
2022/05/03 08:14:53;;;;;;;;;;;10.60;99.90;;;;;;5115836;28;19930;-60
2022/05/03 08:17:19;;;;;;;;;;;10.70;99.90;;;;;;5116159;28;19968;-61
2022/05/03 08:19:44;;;;;;;;;;;10.70;99.90;;;;;;5115770;28;19924;-61
2022/05/03 08:22:10;;;;;;;;;;;10.80;99.90;;;;;;5116081;28;19931;-60
2022/05/03 08:24:36;;;;;;;;;;;10.80;99.90;;;;;;5116073;28;19924;-61
2022/05/03 08:27:02;;;;;;;;;;;10.90;99.90;;;;;;5116064;28;19968;-61
2022/05/03 08:29:29;;;;;;;;;;;10.90;99.90;;;;;;5116733;28;19923;-61
2022/05/03 08:31:55;;;;;;;;;;;11.00;99.90;;;;;;5115593;28;19924;-61
2022/05/03 08:34:21;;;;;;;;;;;11.00;99.90;;;;;;5115669;28;20064;-61
2022/05/03 08:42:01;;;;;;;;;;;11.00;99.90;;;;;;5116288;28;20010;-61
2022/05/03 08:42:17;;;;;;;;;;;11.00;99.90;;;;;;5112171;28;19928;-61
2022/05/03 08:44:42;;;;;;;;;;;11.10;99.90;;;;;;5115643;28;19943;-61
2022/05/03 08:47:08;;;;;;;;;;;11.20;99.90;;;;;;5113823;28;19930;-61
2022/05/03 08:49:39;;;;;;;;;;;11.40;99.90;;;;;;5114687;28;20377;-61
2022/05/03 08:52:06;;;;;;;;;;;11.50;99.90;;;;;;5115554;28;20369;-61
2022/05/03 08:54:35;;;;;;;;;;;11.60;99.90;;;;;;5095802;28;19971;-61
2022/05/03 08:57:04;;;;;;;;;;;11.60;99.90;;;;;;5097027;28;19977;-61
2022/05/03 08:59:31;;;;;;;;;;;11.70;99.90;;;;;;5100835;28;19977;-59
2022/05/03 09:01:57;;;;;;;;;;;11.80;99.90;;;;;;5081767;28;19924;-59
2022/05/03 09:04:23;;;;;;;;;;;11.90;99.90;;;;;;5115723;28;20059;-58
2022/05/03 09:06:50;;;;;;;;;;;12.10;99.90;;;;;;5115025;28;19923;-59
2022/05/03 09:09:19;;;;;;;;;;;12.10;99.90;;;;;;5095725;28;19978;-59
2022/05/03 09:11:53;;;;;;;;;;;12.10;99.90;;;;;;5115813;28;20400;-59
2022/05/03 09:14:35;;;;;;;;;;;12.10;99.90;;;;;;5079234;28;19927;-59
2022/05/03 09:17:02;;;;;;;;;;;12.20;99.90;;;;;;5095452;28;19934;-60
2022/05/03 09:19:28;;;;;;;;;;;12.50;99.90;;;;;;5115490;28;19924;-60
2022/05/03 09:24:52;;;;;;;;;;;12.70;99.90;;;;;;5096324;28;19934;-60
2022/05/03 09:27:19;;;;;;;;;;;12.70;99.90;;;;;;5109055;28;19924;-60
2022/05/03 09:29:58;;;;;;;;;;;12.50;99.90;;;;;;5094101;28;19924;-60
2022/05/03 09:32:37;;;;;;;;;;;12.30;99.90;;;;;;5096978;28;19982;-60
2022/05/03 09:35:03;;;;;;;;;;;12.30;99.90;;;;;;5112063;28;20018;-60
2022/05/03 09:37:40;;;;;;;;;;;12.40;99.90;;;;;;5113712;28;19927;-60
2022/05/03 09:40:08;;;;;;;;;;;12.60;99.90;;;;;;5114507;28;19928;-60
2022/05/03 09:42:35;;;;;;;;;;;12.80;99.90;;;;;;5114389;28;19928;-60
2022/05/03 09:45:02;;;;;;;;;;;13.10;99.90;;;;;;5112668;28;19928;-59
2022/05/03 09:47:29;;;;;;;;;;;13.30;99.90;;;;;;5114834;28;19924;-60
2022/05/03 09:49:55;;;;;;;;;;;13.50;99.90;;;;;;5095539;28;19931;-60
2022/05/03 09:52:27;;;;;;;;;;;13.30;99.90;;;;;;5112968;28;19927;-60
2022/05/03 09:54:54;;;;;;;;;;;13.50;99.90;;;;;;5114557;28;19962;-60
2022/05/03 09:57:21;;;;;;;;;;;13.80;99.90;;;;;;5114108;28;19976;-60
2022/05/03 09:59:47;;;;;;;;;;;13.70;99.90;;;;;;5094161;28;20366;-60
2022/05/03 10:02:15;;;;;;;;;;;13.80;99.90;;;;;;5114423;28;20378;-60
2022/05/03 10:04:40;;;;;;;;;;;13.90;99.90;;;;;;5078399;28;19924;-60
2022/05/03 10:07:06;;;;;;;;;;;13.90;99.90;;;;;;5095177;28;19927;-60
2022/05/03 10:09:32;;;;;;;;;;;13.90;99.90;;;;;;5113985;28;20013;-60
2022/05/03 10:12:00;;;;;;;;;;;13.90;99.90;;;;;;5113979;28;19936;-60
2022/05/03 10:14:26;;;;;;;;;;;14.00;99.90;;;;;;5113915;28;19928;-60
2022/05/03 10:22:23;;;;;;;;;;;14.60;99.90;;;;;;5114016;28;19928;-59
2022/05/03 10:24:54;;;;;;;;;;;14.80;99.90;;;;;;5114632;28;19926;-60
2022/05/03 10:27:24;;;;;;;;;;;14.90;99.90;;;;;;5113399;28;19928;-60
2022/05/03 10:30:08;;;;;;;;;;;14.90;99.90;;;;;;5113930;28;19920;-60
2022/05/03 10:32:34;;;;;;;;;;;15.10;99.90;;;;;;5113864;28;20367;-60
2022/05/03 10:34:59;;;;;;;;;;;14.20;97.00;;;;;;5114125;28;19977;-60
2022/05/03 10:37:25;;;;;;;;;;;15.30;99.90;;;;;;5095072;28;20373;-60
2022/05/03 10:39:55;;;;;;;;;;;15.40;99.20;;;;;;5113479;28;19923;-60
2022/05/03 10:42:26;;;;;;;;;;;15.50;99.50;;;;;;5113883;28;20293;-60
2022/05/03 10:44:52;;;;;;;;;;;15.20;97.20;;;;;;5113341;28;20440;-60
2022/05/03 10:47:19;;;;;;;;;;;15.10;98.00;;;;;;5113148;28;20281;-59
2022/05/03 10:50:03;;;;;;;;;;;15.10;98.30;;;;;;5113898;28;19931;-60
2022/05/03 10:52:29;;;;;;;;;;;15.20;98.00;;;;;;5095115;28;20022;-60
2022/05/03 10:55:05;;;;;;;;;;;15.20;98.20;;;;;;5112993;28;20015;-60
2022/05/03 10:57:31;;;;;;;;;;;15.10;98.10;;;;;;5113960;28;19986;-60
2022/05/03 10:59:57;;;;;;;;;;;15.80;97.80;;;;;;5113573;28;20373;-60
2022/05/03 11:02:23;;;;;;;;;;;16.40;95.20;;;;;;5112497;28;19969;-60
2022/05/03 11:05:07;;;;;;;;;;;16.00;95.30;;;;;;5113174;28;19977;-60
2022/05/03 11:07:33;;;;;;;;;;;15.60;96.00;;;;;;5113273;28;19976;-60
2022/05/03 11:10:19;;;;;;;;;;;15.40;97.30;;;;;;5094809;28;19927;-60
2022/05/03 11:12:48;;;;;;;;;;;15.50;98.30;;;;;;5112771;28;19930;-61
2022/05/03 11:15:14;;;;;;;;;;;15.50;96.40;;;;;;5112278;28;19925;-61
2022/05/03 11:17:41;;;;;;;;;;;15.50;96.20;;;;;;5113778;28;19977;-60
2022/05/03 11:20:06;;;;;;;;;;;15.60;97.00;;;;;;5094775;28;19930;-60
2022/05/03 11:22:33;;;;;;;;;;;15.40;94.80;;;;;;5094298;28;19924;-60
2022/05/03 11:25:02;;;;;;;;;;;15.40;97.40;;;;;;5095272;28;20374;-60
2022/05/03 11:27:28;;;;;;;;;;;15.30;97.70;;;;;;5113484;28;19974;-60
2022/05/03 11:29:56;;;;;;;;;;;15.10;97.30;;;;;;5112036;28;19971;-60
2022/05/03 11:32:27;;;;;;;;;;;15.10;97.40;;;;;;5115972;28;19928;-61
2022/05/03 11:35:01;;;;;;;;;;;15.00;96.40;;;;;;5117931;28;19930;-60
2022/05/03 11:37:26;;;;;;;;;;;15.00;97.30;;;;;;5116300;28;19984;-60
2022/05/03 11:39:52;;;;;;;;;;;15.10;97.20;;;;;;5117484;28;19924;-61
2022/05/03 11:42:21;;;;;;;;;;;15.20;97.10;;;;;;5117554;28;19928;-60
2022/05/03 11:44:46;;;;;;;;;;;15.20;96.50;;;;;;5098065;28;20353;-60
2022/05/03 11:47:13;;;;;;;;;;;15.30;96.10;;;;;;5116349;28;19928;-60
2022/05/03 11:49:39;;;;;;;;;;;15.50;95.00;;;;;;5098441;28;19924;-60
2022/05/03 11:57:35;;;;;;;;;;;15.60;94.00;;;;;;5095420;28;19924;-60
2022/05/03 12:00:02;;;;;;;;;;;16.00;93.00;;;;;;5096423;28;19928;-60
2022/05/03 12:02:35;;;;;;;;;;;16.30;93.10;;;;;;5096722;28;19924;-60
2022/05/03 12:05:04;;;;;;;;;;;16.60;91.50;;;;;;5089814;28;20365;-60
2022/05/03 12:07:36;;;;;;;;;;;16.60;80.20;;;;;;5116618;28;19924;-60
2022/05/03 12:10:19;;;;;;;;;;;16.20;80.50;;;;;;5097956;28;20386;-60
2022/05/03 12:12:46;;;;;;;;;;;15.90;87.10;;;;;;5113825;28;20374;-61
2022/05/03 12:15:19;;;;;;;;;;;15.80;91.10;;;;;;5115875;28;19966;-60
2022/05/03 12:17:52;;;;;;;;;;;15.70;92.10;;;;;;5098212;28;19923;-60
2022/05/03 12:20:18;;;;;;;;;;;15.70;92.20;;;;;;5115404;28;19927;-60
2022/05/03 12:22:44;;;;;;;;;;;15.80;92.60;;;;;;5116025;28;19924;-60
2022/05/03 12:25:09;;;;;;;;;;;15.70;93.30;;;;;;5116103;28;19920;-60
2022/05/03 12:27:35;;;;;;;;;;;15.80;92.20;;;;;;5116117;28;20289;-61
2022/05/03 12:30:09;;;;;;;;;;;15.80;91.10;;;;;;5116408;28;19928;-60
2022/05/03 12:32:35;;;;;;;;;;;16.00;92.60;;;;;;5110541;28;20014;-60
2022/05/03 12:35:01;;;;;;;;;;;16.20;92.20;;;;;;5116202;28;20071;-60
2022/05/03 12:37:27;;;;;;;;;;;16.30;91.60;;;;;;5116797;28;19924;-60
2022/05/03 12:40:00;;;;;;;;;;;16.30;92.10;;;;;;5096504;28;19955;-60
2022/05/03 12:42:25;;;;;;;;;;;16.50;91.70;;;;;;5097570;28;19981;-61
2022/05/03 12:44:52;;;;;;;;;;;16.90;90.70;;;;;;5097042;28;20330;-60
2022/05/03 12:47:18;;;;;;;;;;;17.10;88.30;;;;;;5115906;28;19924;-60
2022/05/03 12:49:44;;;;;;;;;;;17.20;85.00;;;;;;5115207;28;19923;-60
2022/05/03 12:52:10;;;;;;;;;;;17.10;83.00;;;;;;5114207;28;20278;-60
2022/05/03 12:54:40;;;;;;;;;;;16.90;84.30;;;;;;5115017;28;19998;-60
2022/05/03 12:59:50;;;;;;;;;;;16.70;86.00;;;;;;5116232;28;20378;-60
2022/05/03 13:02:17;;;;;;;;;;;17.30;84.30;;;;;;5114916;28;19930;-60
2022/05/03 13:04:42;;;;;;;;;;;18.10;81.00;;;;;;5115378;28;20368;-60
2022/05/03 13:07:08;;;;;;;;;;;18.40;76.60;;;;;;5115281;28;19920;-60
2022/05/03 13:09:34;;;;;;;;;;;18.70;74.40;;;;;;5114844;28;19928;-61
2022/05/03 13:12:00;;;;;;;;;;;19.10;74.10;;;;;;5115409;28;20435;-61
2022/05/03 13:14:26;;;;;;;;;;;19.10;73.30;;;;;;5114559;28;20000;-61
2022/05/03 13:16:52;;;;;;;;;;;18.80;70.00;;;;;;5115937;28;19923;-60
2022/05/03 13:19:18;;;;;;;;;;;18.30;70.20;;;;;;5115241;28;19949;-61
2022/05/03 13:21:44;;;;;;;;;;;18.20;72.40;;;;;;5114875;28;20005;-61
2022/05/03 13:24:10;;;;;;;;;;;18.20;73.40;;;;;;5096667;28;19923;-60
2022/05/03 13:26:37;;;;;;;;;;;18.30;72.80;;;;;;5114933;28;19931;-60
2022/05/03 13:29:04;;;;;;;;;;;18.20;73.10;;;;;;5114854;28;19924;-61
2022/05/03 13:31:30;;;;;;;;;;;18.50;72.20;;;;;;5115186;28;19924;-60
2022/05/03 13:33:55;;;;;;;;;;;18.30;71.30;;;;;;5114958;28;19975;-61
2022/05/03 13:41:50;;;;;;;;;;;17.40;71.80;;;;;;5114304;28;19984;-61
2022/05/03 13:44:16;;;;;;;;;;;17.30;73.20;;;;;;5114547;28;19926;-61
2022/05/03 13:46:41;;;;;;;;;;;17.20;74.10;;;;;;5115035;28;19928;-60
2022/05/03 13:49:07;;;;;;;;;;;17.10;72.80;;;;;;5096003;28;19939;-61
2022/05/03 13:51:33;;;;;;;;;;;16.90;75.80;;;;;;5094431;28;19924;-61
2022/05/03 13:53:59;;;;;;;;;;;16.90;76.50;;;;;;5114647;28;20362;-61
2022/05/03 13:56:24;;;;;;;;;;;16.90;77.00;;;;;;5092439;28;19934;-61
2022/05/03 13:58:50;;;;;;;;;;;17.20;76.50;;;;;;5113741;28;19935;-61
2022/05/03 14:01:16;;;;;;;;;;;17.30;76.40;;;;;;5114851;28;19928;-61
2022/05/03 14:03:42;;;;;;;;;;;17.10;75.10;;;;;;5113773;28;20336;-61
2022/05/03 14:06:07;;;;;;;;;;;16.90;73.10;;;;;;5114754;28;20007;-61
2022/05/03 14:08:33;;;;;;;;;;;16.70;72.90;;;;;;5095951;28;19931;-60
2022/05/03 14:10:59;;;;;;;;;;;16.40;76.70;;;;;;5113313;28;19923;-61
2022/05/03 14:13:25;;;;;;;;;;;16.20;78.60;;;;;;5113961;28;20059;-61
2022/05/03 14:15:51;;;;;;;;;;;16.30;79.10;;;;;;5114535;28;20398;-60
2022/05/03 14:18:16;;;;;;;;;;;16.30;78.10;;;;;;5095044;28;20027;-61
2022/05/03 14:20:42;;;;;;;;;;;16.30;80.00;;;;;;5095755;28;20374;-61
2022/05/03 14:23:08;;;;;;;;;;;16.10;77.80;;;;;;5114455;28;20281;-61
2022/05/03 14:25:33;;;;;;;;;;;15.90;80.60;;;;;;5095028;28;19924;-61
2022/05/03 14:27:59;;;;;;;;;;;16.20;79.90;;;;;;5113845;28;19985;-61
2022/05/03 14:30:25;;;;;;;;;;;16.10;79.30;;;;;;5095955;28;19923;-60
2022/05/03 14:32:51;;;;;;;;;;;16.20;80.90;;;;;;5113089;28;19924;-61
2022/05/03 14:35:16;;;;;;;;;;;16.20;80.70;;;;;;5113614;28;20391;-60
2022/05/03 14:37:42;;;;;;;;;;;16.40;81.80;;;;;;5114124;28;19962;-61
2022/05/03 14:40:09;;;;;;;;;;;16.90;80.10;;;;;;5113262;28;20297;-61
2022/05/03 14:42:35;;;;;;;;;;;17.10;73.50;;;;;;5113678;28;19924;-61
2022/05/03 14:45:01;;;;;;;;;;;17.20;75.70;;;;;;5113853;28;19951;-61
2022/05/03 14:47:26;;;;;;;;;;;16.80;73.80;;;;;;5113403;28;19946;-60
2022/05/03 14:49:52;;;;;;;;;;;16.60;76.00;;;;;;5113490;28;19928;-61
2022/05/03 14:52:18;;;;;;;;;;;16.20;77.80;;;;;;5113742;28;20379;-60
2022/05/03 14:54:47;;;;;;;;;;;15.70;79.50;;;;;;5113516;28;19924;-61
2022/05/03 15:02:52;;;;;;;;;;;16.20;77.20;;;;;;5113419;28;20282;-61
2022/05/03 15:05:20;;;;;;;;;;;16.00;81.60;;;;;;5113920;28;19976;-60
2022/05/03 15:07:45;;;;;;;;;;;15.50;82.40;;;;;;5112568;28;19928;-60
2022/05/03 15:10:11;;;;;;;;;;;15.20;83.80;;;;;;5094630;28;19951;-61